Terminal Aerodrome Forecast
Issued by NWS

Home | Current Version | Previous Version | Text Only | Print | Product List | Glossary On
Versions: 1 2 3 4 5 6 7 8 9 10 11 12 13 14 15 16
000
FTUS42 KTBW 211915 AAB
TAFLAL
TAF AMD
KLAL 211915Z 2119/2218 VRB10G20KT 3SM TSRA SCT015CB BKN025
     FM212000 VRB06KT P6SM VCTS SCT020CB BKN040
      TEMPO 2120/2122 3SM TSRA BKN020CB OVC040
     FM212200 24006KT P6SM VCTS SCT025CB BKN100
     FM220200 VRB03KT P6SM SCT100 BKN250
     FM221600 19004KT P6SM VCTS SCT025CB BKN250=

USA.gov is the U.S. government's official web portal to all federal, state and local government web resources and services.